Hikarimaru No.17 — JD2956 — position and weather

sailwx.info

Track history (hours):
 
Tides and Currents Weather Stations Pressure Air Temp Water Temp Dewpoint Dewpoint Depression Visibility Wind Speed Wind Dir Waves Ship Positions

Hikarimaru No.17

Last reported at 2017-Apr-26 09:29 UTC. Time now 2017-Apr-29 15:29 UTC.
Position N 34°33' E 134°48'.

Length 105 m; draft 5.5 m.

Type: Tanker. MMSI: 431000984.

Date/timePositionNaut miles runAvg speedWind from/ knotsBaromVisibWave heightAir tempDewpointWater temp
2017-Apr-26 09:29N 34°33' E 134°48'815.1
2017-Apr-26 08:59N 34°37' E 134°56'612.8
2017-Apr-26 08:30N 34°36' E 135°04'611.9
2017-Apr-26 07:59N 34°30' E 135°03'1413.1
2017-Apr-26 06:55N 34°16' E 134°59'411.0
2017-Apr-26 06:30N 34°12' E 134°59'612.1
2017-Apr-26 06:00N 34°05' E 135°00'5 0.6
2017-Apr-25 21:33N 34°01' E 135°03'112.0
2017-Apr-25 21:27N 34°02' E 135°03'511.2
2017-Apr-25 21:00N 34°07' E 135°05'1 2.0
2017-Apr-25 20:28N 34°08' E 135°05'0 0.0
2017-Apr-25 19:58N 34°08' E 135°05'0 0.0
2017-Apr-25 19:16N 34°08' E 135°05'0 0.2
2017-Apr-25 19:00N 34°08' E 135°05'4 8.5
2017-Apr-25 18:31N 34°11' E 135°02'813.4
2017-Apr-25 17:57N 34°18' E 134°59'613.5
2017-Apr-25 17:30N 34°24' E 135°00'713.5
2017-Apr-25 16:57N 34°31' E 135°02'612.8
2017-Apr-25 16:30N 34°37' E 135°01'  
2017-Apr-20 05:58N 34°36' E 134°55'612.2
2017-Apr-20 05:30N 34°37' E 135°02'510.4
2017-Apr-20 05:00N 34°32' E 135°04'1912.6
2017-Apr-20 03:31N 34°13' E 134°59'111.4
2017-Apr-20 03:28N 34°13' E 134°60'224 9.4
2017-Apr-19 03:37N 34°54' E 139°27'210.3
2017-Apr-19 03:24N 34°55' E 139°29'410.4
2017-Apr-19 03:00N 34°58' E 139°33'510.9
2017-Apr-19 02:30N 35°02' E 139°38'510.7
2017-Apr-19 02:00N 35°05' E 139°42'510.9
2017-Apr-19 01:30N 35°10' E 139°45'611.7
2017-Apr-19 01:00N 35°16' E 139°46'612.5
2017-Apr-19 00:30N 35°22' E 139°42'611.1
2017-Apr-19 00:00N 35°26' E 139°46'612.1
2017-Apr-18 23:30N 35°30' E 139°52'611.2
2017-Apr-18 23:00N 35°32' E 139°59'0 0.1
2017-Apr-18 18:16N 35°32' E 139°59'0 0.0
2017-Apr-18 17:58N 35°32' E 139°59'0 0.0
2017-Apr-18 14:13N 35°32' E 139°59'0 0.0
2017-Apr-18 13:17N 35°32' E 139°59'0 0.0
2017-Apr-18 12:07N 35°32' E 139°59'0 0.0
2017-Apr-18 11:55N 35°32' E 139°59'0 0.1
2017-Apr-18 10:36N 35°32' E 139°59'0 0.4
2017-Apr-18 10:29N 35°32' E 139°59'0 0.0
2017-Apr-18 09:44N 35°32' E 139°59'0 0.0
2017-Apr-17 12:21N 35°32' E 139°59'0 0.1
2017-Apr-17 12:00N 35°32' E 139°59'1 0.3
2017-Apr-17 10:15N 35°32' E 139°60'3 0.3
2017-Apr-17 02:06N 35°32' E 140°03'0 3.7
2017-Apr-17 02:00N 35°32' E 140°03'2 3.3
2017-Apr-17 01:22N 35°33' E 140°00'0 0.1
2017-Apr-17 00:54N 35°33' E 140°00'0 0.0
2017-Apr-17 00:30N 35°33' E 140°00'0 0.0
2017-Apr-16 23:57N 35°33' E 140°00'0 0.0
2017-Apr-16 23:30N 35°33' E 140°00'0 0.0
2017-Apr-16 23:00N 35°33' E 140°00'0 0.1
2017-Apr-16 22:30N 35°33' E 140°00'0 0.1
2017-Apr-16 21:51N 35°33' E 140°00'0 0.0
2017-Apr-16 21:30N 35°33' E 140°00'0 0.1
2017-Apr-16 21:00N 35°33' E 140°00'0 0.1
2017-Apr-16 20:30N 35°33' E 140°00'0 0.1
2017-Apr-16 20:00N 35°33' E 140°00'0 0.0
2017-Apr-16 19:30N 35°33' E 140°00'0 0.0
2017-Apr-16 18:57N 35°33' E 140°00'0 0.0
2017-Apr-16 18:30N 35°33' E 140°00'0 0.1
2017-Apr-16 18:00N 35°33' E 140°00'0 0.1
2017-Apr-16 17:30N 35°33' E 140°00'0 0.0
2017-Apr-16 17:00N 35°33' E 140°00'0 0.0
2017-Apr-16 16:30N 35°33' E 140°00'0 0.0
2017-Apr-16 15:45N 35°33' E 140°00'0 0.0
2017-Apr-16 15:30N 35°33' E 140°00'0 0.0
2017-Apr-16 14:54N 35°33' E 140°00'0 0.0
2017-Apr-16 14:30N 35°33' E 140°00'0 0.0
2017-Apr-16 13:24N 35°33' E 140°00'0 0.0
2017-Apr-16 12:54N 35°33' E 140°00'0 0.0
2017-Apr-16 11:54N 35°33' E 140°00'0 0.0
2017-Apr-16 11:30N 35°33' E 140°00'0 0.0
2017-Apr-16 10:39N 35°33' E 140°00'0 0.0
2017-Apr-16 10:30N 35°33' E 140°00'0 0.0
2017-Apr-16 10:00N 35°33' E 140°00'0 0.0
2017-Apr-16 09:30N 35°33' E 140°00'  
Track history (hours):
 
Tides and Currents Weather Stations Pressure Air Temp Water Temp Dewpoint Dewpoint Depression Visibility Wind Speed Wind Dir Waves Ship Positions

Hikarimaru No.17

Last reported at 2017-Apr-26 09:29 UTC. Time now 2017-Apr-29 15:29 UTC.
Position N 34°33' E 134°48'.

Length 105 m; draft 5.5 m.

Type: Tanker. MMSI: 431000984.

Date/timePositionNaut miles runAvg speedWind from/ knotsBaromVisibWave heightAir tempDewpointWater temp
2017-Apr-26 09:29N 34°33' E 134°48'815.1
2017-Apr-26 08:59N 34°37' E 134°56'612.8
2017-Apr-26 08:30N 34°36' E 135°04'611.9
2017-Apr-26 07:59N 34°30' E 135°03'1413.1
2017-Apr-26 06:55N 34°16' E 134°59'411.0
2017-Apr-26 06:30N 34°12' E 134°59'612.1
2017-Apr-26 06:00N 34°05' E 135°00'5 0.6
2017-Apr-25 21:33N 34°01' E 135°03'112.0
2017-Apr-25 21:27N 34°02' E 135°03'511.2
2017-Apr-25 21:00N 34°07' E 135°05'1 2.0
2017-Apr-25 20:28N 34°08' E 135°05'0 0.0
2017-Apr-25 19:58N 34°08' E 135°05'0 0.0
2017-Apr-25 19:16N 34°08' E 135°05'0 0.2
2017-Apr-25 19:00N 34°08' E 135°05'4 8.5
2017-Apr-25 18:31N 34°11' E 135°02'813.4
2017-Apr-25 17:57N 34°18' E 134°59'613.5
2017-Apr-25 17:30N 34°24' E 135°00'713.5
2017-Apr-25 16:57N 34°31' E 135°02'612.8
2017-Apr-25 16:30N 34°37' E 135°01'  
2017-Apr-20 05:58N 34°36' E 134°55'612.2
2017-Apr-20 05:30N 34°37' E 135°02'510.4
2017-Apr-20 05:00N 34°32' E 135°04'1912.6
2017-Apr-20 03:31N 34°13' E 134°59'111.4
2017-Apr-20 03:28N 34°13' E 134°60'224 9.4
2017-Apr-19 03:37N 34°54' E 139°27'210.3
2017-Apr-19 03:24N 34°55' E 139°29'410.4
2017-Apr-19 03:00N 34°58' E 139°33'510.9
2017-Apr-19 02:30N 35°02' E 139°38'510.7
2017-Apr-19 02:00N 35°05' E 139°42'510.9
2017-Apr-19 01:30N 35°10' E 139°45'611.7
2017-Apr-19 01:00N 35°16' E 139°46'612.5
2017-Apr-19 00:30N 35°22' E 139°42'611.1
2017-Apr-19 00:00N 35°26' E 139°46'612.1
2017-Apr-18 23:30N 35°30' E 139°52'611.2
2017-Apr-18 23:00N 35°32' E 139°59'0 0.1
2017-Apr-18 18:16N 35°32' E 139°59'0 0.0
2017-Apr-18 17:58N 35°32' E 139°59'0 0.0
2017-Apr-18 14:13N 35°32' E 139°59'0 0.0
2017-Apr-18 13:17N 35°32' E 139°59'0 0.0
2017-Apr-18 12:07N 35°32' E 139°59'0 0.0
2017-Apr-18 11:55N 35°32' E 139°59'0 0.1
2017-Apr-18 10:36N 35°32' E 139°59'0 0.4
2017-Apr-18 10:29N 35°32' E 139°59'0 0.0
2017-Apr-18 09:44N 35°32' E 139°59'0 0.0
2017-Apr-17 12:21N 35°32' E 139°59'0 0.1
2017-Apr-17 12:00N 35°32' E 139°59'1 0.3
2017-Apr-17 10:15N 35°32' E 139°60'3 0.3
2017-Apr-17 02:06N 35°32' E 140°03'0 3.7
2017-Apr-17 02:00N 35°32' E 140°03'2 3.3
2017-Apr-17 01:22N 35°33' E 140°00'0 0.1
2017-Apr-17 00:54N 35°33' E 140°00'0 0.0
2017-Apr-17 00:30N 35°33' E 140°00'0 0.0
2017-Apr-16 23:57N 35°33' E 140°00'0 0.0
2017-Apr-16 23:30N 35°33' E 140°00'0 0.0
2017-Apr-16 23:00N 35°33' E 140°00'0 0.1
2017-Apr-16 22:30N 35°33' E 140°00'0 0.1
2017-Apr-16 21:51N 35°33' E 140°00'0 0.0
2017-Apr-16 21:30N 35°33' E 140°00'0 0.1
2017-Apr-16 21:00N 35°33' E 140°00'0 0.1
2017-Apr-16 20:30N 35°33' E 140°00'0 0.1
2017-Apr-16 20:00N 35°33' E 140°00'0 0.0
2017-Apr-16 19:30N 35°33' E 140°00'0 0.0
2017-Apr-16 18:57N 35°33' E 140°00'0 0.0
2017-Apr-16 18:30N 35°33' E 140°00'0 0.1
2017-Apr-16 18:00N 35°33' E 140°00'0 0.1
2017-Apr-16 17:30N 35°33' E 140°00'0 0.0
2017-Apr-16 17:00N 35°33' E 140°00'0 0.0
2017-Apr-16 16:30N 35°33' E 140°00'0 0.0
2017-Apr-16 15:45N 35°33' E 140°00'0 0.0
2017-Apr-16 15:30N 35°33' E 140°00'0 0.0
2017-Apr-16 14:54N 35°33' E 140°00'0 0.0
2017-Apr-16 14:30N 35°33' E 140°00'0 0.0
2017-Apr-16 13:24N 35°33' E 140°00'0 0.0
2017-Apr-16 12:54N 35°33' E 140°00'0 0.0
2017-Apr-16 11:54N 35°33' E 140°00'0 0.0
2017-Apr-16 11:30N 35°33' E 140°00'0 0.0
2017-Apr-16 10:39N 35°33' E 140°00'0 0.0
2017-Apr-16 10:30N 35°33' E 140°00'0 0.0
2017-Apr-16 10:00N 35°33' E 140°00'0 0.0
2017-Apr-16 09:30N 35°33' E 140°00'  

Dump ship's entire track history